createdAt,value
2022-09-11T00:04:28.022Z,13.9
2022-09-11T00:09:36.812Z,13.8
2022-09-11T00:14:43.639Z,13.84
2022-09-11T00:19:51.802Z,13.88
2022-09-11T00:24:59.574Z,13.85
2022-09-11T00:30:08.090Z,13.88
2022-09-11T00:35:18.263Z,13.9
2022-09-11T00:40:26.967Z,13.9
2022-09-11T00:45:35.234Z,13.9
2022-09-11T00:50:42.778Z,13.88
2022-09-11T00:55:49.937Z,13.88
2022-09-11T01:00:58.004Z,13.88
2022-09-11T01:06:05.010Z,13.9
2022-09-11T01:11:12.543Z,13.94
2022-09-11T01:16:20.331Z,13.96
2022-09-11T01:21:29.065Z,13.96
2022-09-11T01:26:36.859Z,13.96
2022-09-11T01:31:43.577Z,13.96
2022-09-11T01:36:50.134Z,13.94
2022-09-11T01:41:57.872Z,13.86
2022-09-11T01:47:05.280Z,13.83
2022-09-11T01:52:13.527Z,13.83
2022-09-11T01:57:22.134Z,13.83
2022-09-11T02:02:29.527Z,13.82
2022-09-11T02:07:37.641Z,13.8
2022-09-11T02:12:46.003Z,13.76
2022-09-11T02:17:53.572Z,13.69
2022-09-11T02:23:02.490Z,13.59
2022-09-11T02:28:10.642Z,13.58
2022-09-11T02:33:18.681Z,13.55
2022-09-11T02:38:26.802Z,13.69
2022-09-11T02:43:34.356Z,13.76
2022-09-11T02:48:43.315Z,13.89
2022-09-11T02:53:50.311Z,14.04
2022-09-11T02:58:58.238Z,14.08
2022-09-11T03:04:05.361Z,14.04
2022-09-11T03:09:13.519Z,13.85
2022-09-11T03:14:21.184Z,13.67
2022-09-11T03:19:28.901Z,13.63
2022-09-11T03:24:36.871Z,13.7
2022-09-11T03:29:45.113Z,13.82
2022-09-11T03:34:53.019Z,13.92
2022-09-11T03:40:00.477Z,14.04
2022-09-11T03:45:09.044Z,14.12
2022-09-11T03:50:17.528Z,14.22
2022-09-11T03:55:30.815Z,14.32
2022-09-11T04:00:38.635Z,14.33
2022-09-11T04:05:46.392Z,14.32
2022-09-11T04:10:53.800Z,14.28
2022-09-11T04:16:02.375Z,14.36
2022-09-11T04:21:09.390Z,14.4
2022-09-11T04:26:17.940Z,14.46
2022-09-11T04:31:25.002Z,14.38
2022-09-11T04:36:33.096Z,14.16
2022-09-11T04:41:40.732Z,13.97
2022-09-11T04:46:47.901Z,13.92
2022-09-11T04:51:55.954Z,14.02
2022-09-11T04:57:02.959Z,14.28
2022-09-11T05:02:10.118Z,14.42
2022-09-11T05:07:17.336Z,14.28
2022-09-11T05:12:26.325Z,14.12
2022-09-11T05:17:45.308Z,13.99
2022-09-11T05:22:52.680Z,14.03
2022-09-11T05:28:01.023Z,14.15
2022-09-11T05:33:09.158Z,14.33
2022-09-11T05:38:16.809Z,14.51
2022-09-11T05:43:24.396Z,14.66
2022-09-11T05:48:32.301Z,14.88
2022-09-11T05:53:40.330Z,15.17
2022-09-11T05:58:48.564Z,15.67
2022-09-11T06:03:56.616Z,16.12
2022-09-11T06:09:03.716Z,16.26
2022-09-11T06:14:11.784Z,16.72
2022-09-11T06:19:19.257Z,17.02
2022-09-11T06:24:27.095Z,18.58
2022-09-11T06:29:34.649Z,20.22
2022-09-11T06:34:41.494Z,20.48
2022-09-11T06:39:48.959Z,20.66
2022-09-11T06:44:56.556Z,19.96
2022-09-11T06:50:04.152Z,22.3
2022-09-11T06:55:11.610Z,23.14
2022-09-11T07:00:20.464Z,28.16
2022-09-11T07:05:28.544Z,30.43
2022-09-11T07:10:38.153Z,27.86
2022-09-11T07:15:47.994Z,25.44
2022-09-11T07:27:03.687Z,22.42
2022-09-11T07:33:58.688Z,21.2
2022-09-11T07:39:05.822Z,21.04
2022-09-11T07:44:14.230Z,24.02
2022-09-11T07:49:21.513Z,23.96
2022-09-11T07:54:30.163Z,23.46
2022-09-11T07:59:37.852Z,22.33
2022-09-11T08:04:45.597Z,22.06
2022-09-11T08:09:53.682Z,21.85
2022-09-11T08:15:01.338Z,22.92
2022-09-11T08:20:08.536Z,23.1
2022-09-11T08:25:16.384Z,23.57
2022-09-11T08:30:23.583Z,22.94
2022-09-11T08:35:31.354Z,21.86
2022-09-11T08:40:39.372Z,21.11
2022-09-11T08:45:46.521Z,21.02
2022-09-11T08:50:54.334Z,21.33
2022-09-11T08:56:02.170Z,21.42
2022-09-11T09:01:09.372Z,21.22
2022-09-11T09:06:16.629Z,21.42
2022-09-11T09:11:24.399Z,21.89
2022-09-11T09:16:31.606Z,22.4
2022-09-11T09:21:38.810Z,22.64
2022-09-11T09:26:46.394Z,22.36
2022-09-11T09:31:53.816Z,21.86
2022-09-11T09:37:01.664Z,21.31
2022-09-11T09:42:10.637Z,20.71
2022-09-11T09:47:18.376Z,20.02
2022-09-11T09:52:26.283Z,19.82
2022-09-11T09:57:33.953Z,20.2
2022-09-11T10:02:41.693Z,20.42
2022-09-11T10:07:50.476Z,20.42
2022-09-11T10:12:57.210Z,19.74
2022-09-11T10:18:04.988Z,18.76
2022-09-11T10:23:13.046Z,18.7
2022-09-11T10:28:21.038Z,19.91
2022-09-11T10:33:29.136Z,21.54
2022-09-11T10:38:37.409Z,21.72
2022-09-11T10:43:44.863Z,20.84
2022-09-11T10:48:51.770Z,19.8
2022-09-11T10:54:00.481Z,18.64
2022-09-11T10:59:07.572Z,17.48
2022-09-11T11:04:14.904Z,16.4
2022-09-11T11:09:23.439Z,15.61
2022-09-11T11:14:31.460Z,15.26
2022-09-11T11:19:39.912Z,15.22
2022-09-11T11:24:47.820Z,15.3
2022-09-11T11:29:55.366Z,15.61
2022-09-11T11:35:03.259Z,15.82
2022-09-11T11:40:10.443Z,16.57
2022-09-11T11:45:17.838Z,17.35
2022-09-11T11:50:25.067Z,18.15
2022-09-11T11:55:32.684Z,18.73
2022-09-11T12:00:40.406Z,19.08
2022-09-11T12:05:47.763Z,19.72
2022-09-11T12:10:54.946Z,20.2
2022-09-11T12:16:01.497Z,20.26
2022-09-11T12:21:09.344Z,20.93
2022-09-11T12:26:17.214Z,21.46
2022-09-11T12:31:24.416Z,22.14
2022-09-11T12:36:33.155Z,22.78
2022-09-11T12:41:40.694Z,23.3
2022-09-11T12:46:48.416Z,22.96
2022-09-11T12:51:56.407Z,22.46
2022-09-11T12:57:04.402Z,22.76
2022-09-11T13:02:11.486Z,23.84
2022-09-11T13:07:20.994Z,24.06
2022-09-11T13:12:29.567Z,24.03
2022-09-11T13:17:38.326Z,24.64
2022-09-11T13:22:47.135Z,25.08
2022-09-11T13:27:54.728Z,25.43
2022-09-11T13:33:02.877Z,25.69
2022-09-11T13:38:11.044Z,25.28
2022-09-11T13:43:19.312Z,24.62
2022-09-11T13:48:27.609Z,24.62
2022-09-11T13:53:35.060Z,24.26
2022-09-11T13:58:42.576Z,24.22
2022-09-11T14:03:50.014Z,25.88
2022-09-11T14:08:59.332Z,27.08
2022-09-11T14:14:06.972Z,27.12
2022-09-11T14:19:12.921Z,25.92
2022-09-11T14:24:21.344Z,25.3
2022-09-11T14:29:29.613Z,25.96
2022-09-11T14:34:38.171Z,26.6
2022-09-11T14:39:45.613Z,26.34
2022-09-11T14:44:52.123Z,25.1
2022-09-11T14:49:59.489Z,23.44
2022-09-11T14:55:05.820Z,21.86
2022-09-11T15:00:14.252Z,20.64
2022-09-11T15:05:21.145Z,19.78
2022-09-11T15:10:29.116Z,19.22
2022-09-11T15:15:37.052Z,18.62
2022-09-11T15:20:44.386Z,18.36
2022-09-11T15:25:52.791Z,18.47
2022-09-11T15:31:00.062Z,18.52
2022-09-11T15:36:07.763Z,18.36
2022-09-11T15:41:15.229Z,18.26
2022-09-11T15:46:23.534Z,18.34
2022-09-11T15:51:31.284Z,18.72
2022-09-11T15:56:39.836Z,19.14
2022-09-11T16:01:47.742Z,19.26
2022-09-11T16:06:56.221Z,19.19
2022-09-11T16:12:02.372Z,18.91
2022-09-11T16:17:09.503Z,18.62
2022-09-11T16:22:17.192Z,18.26
2022-09-11T16:27:25.378Z,17.88
2022-09-11T16:32:33.518Z,17.41
2022-09-11T16:37:41.381Z,17.06
2022-09-11T16:42:48.843Z,16.78
2022-09-11T16:47:57.198Z,16.56
2022-09-11T16:53:05.055Z,16.32
2022-09-11T16:58:13.510Z,16.25
2022-09-11T17:03:23.134Z,15.89
2022-09-11T17:08:30.325Z,15.75
2022-09-11T17:13:37.569Z,15.74
2022-09-11T17:18:45.449Z,15.54
2022-09-11T17:23:53.169Z,15.42
2022-09-11T17:29:00.489Z,15.32
2022-09-11T17:34:07.923Z,15.3
2022-09-11T17:39:16.629Z,15.2
2022-09-11T17:44:31.206Z,15.07
2022-09-11T17:49:39.148Z,14.94
2022-09-11T17:54:48.452Z,14.92
2022-09-11T17:59:55.778Z,14.89
2022-09-11T18:05:02.327Z,14.82
2022-09-11T18:10:09.999Z,14.7
2022-09-11T18:15:17.909Z,14.64
2022-09-11T18:20:25.841Z,14.53
2022-09-11T18:25:34.399Z,14.5
2022-09-11T18:30:41.543Z,14.57
2022-09-11T18:35:48.695Z,14.67
2022-09-11T18:40:56.767Z,14.74
2022-09-11T18:46:04.412Z,14.78
2022-09-11T18:51:11.580Z,14.82
2022-09-11T18:56:19.451Z,14.92
2022-09-11T19:01:26.365Z,15.0
2022-09-11T19:06:33.846Z,15.05
2022-09-11T19:11:41.055Z,15.08
2022-09-11T19:16:48.546Z,15.06
2022-09-11T19:21:55.458Z,15.02
2022-09-11T19:27:03.292Z,14.88
2022-09-11T19:32:10.823Z,14.8
2022-09-11T19:37:18.890Z,14.8
2022-09-11T19:42:25.526Z,14.75
2022-09-11T19:47:32.775Z,14.63
2022-09-11T19:52:40.757Z,14.53
2022-09-11T19:57:49.484Z,14.51
2022-09-11T20:03:03.562Z,14.52
2022-09-11T20:08:11.614Z,14.52
2022-09-11T20:13:19.341Z,14.51
2022-09-11T20:18:26.646Z,14.52
2022-09-11T20:23:34.521Z,14.59
2022-09-11T20:28:43.250Z,14.54
2022-09-11T20:33:51.164Z,14.51
2022-09-11T20:38:59.452Z,14.48
2022-09-11T20:44:07.338Z,14.43
2022-09-11T20:49:15.269Z,14.3
2022-09-11T20:54:23.548Z,14.18
2022-09-11T20:59:30.831Z,14.02
2022-09-11T21:04:38.828Z,13.82
2022-09-11T21:09:46.058Z,13.64
2022-09-11T21:14:53.962Z,13.48
2022-09-11T21:20:01.871Z,13.38
2022-09-11T21:25:09.336Z,13.3
2022-09-11T21:30:16.578Z,13.2
2022-09-11T21:35:24.806Z,13.02
2022-09-11T21:40:32.540Z,12.82
2022-09-11T21:45:38.809Z,12.74
2022-09-11T21:50:46.161Z,12.75
2022-09-11T21:55:53.747Z,12.72
2022-09-11T22:01:01.450Z,12.67
2022-09-11T22:06:09.494Z,12.74
2022-09-11T22:11:17.861Z,12.76
2022-09-11T22:16:26.115Z,12.74
2022-09-11T22:21:34.080Z,12.67
2022-09-11T22:26:40.942Z,12.64
2022-09-11T22:31:48.168Z,12.62
2022-09-11T22:36:56.010Z,12.55
2022-09-11T22:42:03.183Z,12.48
2022-09-11T22:47:10.948Z,12.53
2022-09-11T22:52:17.583Z,12.6
2022-09-11T22:57:24.786Z,12.53
2022-09-11T23:02:32.960Z,12.44
2022-09-11T23:07:41.320Z,12.34
2022-09-11T23:12:50.725Z,12.29
2022-09-11T23:17:58.732Z,12.21
2022-09-11T23:23:06.972Z,12.2
2022-09-11T23:28:20.693Z,12.2
2022-09-11T23:33:27.704Z,12.11
2022-09-11T23:38:35.482Z,11.99
2022-09-11T23:43:43.149Z,11.99
2022-09-11T23:48:50.782Z,12.06
2022-09-11T23:53:57.356Z,12.12
2022-09-11T23:59:05.010Z,12.12
